sensor_id;sensor_type;location;lat;lon;timestamp;temperature;humidity
9305;DHT22;4690;52.422;13.486;2023-11-21T00:12:13;10.10;99.90
9305;DHT22;4690;52.422;13.486;2023-11-21T00:14:40;10.10;99.90
9305;DHT22;4690;52.422;13.486;2023-11-21T00:17:06;10.20;99.90
9305;DHT22;4690;52.422;13.486;2023-11-21T00:19:32;10.10;99.90
9305;DHT22;4690;52.422;13.486;2023-11-21T00:22:00;10.00;99.90
9305;DHT22;4690;52.422;13.486;2023-11-21T00:24:26;9.90;99.90
9305;DHT22;4690;52.422;13.486;2023-11-21T00:26:51;9.80;99.90
9305;DHT22;4690;52.422;13.486;2023-11-21T00:29:18;9.80;99.90
9305;DHT22;4690;52.422;13.486;2023-11-21T00:31:44;9.70;99.90
9305;DHT22;4690;52.422;13.486;2023-11-21T00:34:12;9.60;99.90
9305;DHT22;4690;52.422;13.486;2023-11-21T00:36:38;9.60;99.90
9305;DHT22;4690;52.422;13.486;2023-11-21T00:39:04;9.60;99.90
9305;DHT22;4690;52.422;13.486;2023-11-21T00:41:31;9.50;99.90
9305;DHT22;4690;52.422;13.486;2023-11-21T00:43:57;9.30;99.90
9305;DHT22;4690;52.422;13.486;2023-11-21T00:46:24;9.30;99.90
9305;DHT22;4690;52.422;13.486;2023-11-21T00:48:52;9.30;99.90
9305;DHT22;4690;52.422;13.486;2023-11-21T00:51:19;9.20;99.90
9305;DHT22;4690;52.422;13.486;2023-11-21T00:53:45;9.00;99.90
9305;DHT22;4690;52.422;13.486;2023-11-21T00:56:13;8.90;99.90
9305;DHT22;4690;52.422;13.486;2023-11-21T00:58:39;8.90;99.90
9305;DHT22;4690;52.422;13.486;2023-11-21T01:01:09;8.90;99.90
9305;DHT22;4690;52.422;13.486;2023-11-21T01:03:35;8.80;99.90
9305;DHT22;4690;52.422;13.486;2023-11-21T01:06:01;8.70;99.90
9305;DHT22;4690;52.422;13.486;2023-11-21T01:08:26;8.70;99.90
9305;DHT22;4690;52.422;13.486;2023-11-21T01:10:52;8.70;99.90
9305;DHT22;4690;52.422;13.486;2023-11-21T01:13:19;8.70;99.90
9305;DHT22;4690;52.422;13.486;2023-11-21T01:15:44;8.70;99.90
9305;DHT22;4690;52.422;13.486;2023-11-21T01:18:10;8.70;99.90
9305;DHT22;4690;52.422;13.486;2023-11-21T01:20:36;8.70;99.90
9305;DHT22;4690;52.422;13.486;2023-11-21T01:23:01;8.70;99.90
9305;DHT22;4690;52.422;13.486;2023-11-21T01:25:27;8.80;99.90
9305;DHT22;4690;52.422;13.486;2023-11-21T01:27:53;8.80;99.90
9305;DHT22;4690;52.422;13.486;2023-11-21T01:30:19;8.70;99.90
9305;DHT22;4690;52.422;13.486;2023-11-21T01:32:44;8.70;99.90
9305;DHT22;4690;52.422;13.486;2023-11-21T01:35:10;8.50;99.90
9305;DHT22;4690;52.422;13.486;2023-11-21T01:37:37;8.40;99.90
9305;DHT22;4690;52.422;13.486;2023-11-21T01:40:04;8.40;99.90
9305;DHT22;4690;52.422;13.486;2023-11-21T01:42:39;8.30;99.90
9305;DHT22;4690;52.422;13.486;2023-11-21T01:45:06;8.30;99.90
9305;DHT22;4690;52.422;13.486;2023-11-21T01:47:33;8.20;99.90
9305;DHT22;4690;52.422;13.486;2023-11-21T01:50:02;8.10;99.90
9305;DHT22;4690;52.422;13.486;2023-11-21T01:52:30;8.10;99.90
9305;DHT22;4690;52.422;13.486;2023-11-21T01:54:57;8.10;99.90
9305;DHT22;4690;52.422;13.486;2023-11-21T01:57:24;8.00;99.90
9305;DHT22;4690;52.422;13.486;2023-11-21T01:59:53;8.00;99.90
9305;DHT22;4690;52.422;13.486;2023-11-21T02:02:19;8.00;99.90
9305;DHT22;4690;52.422;13.486;2023-11-21T02:04:45;8.00;99.90
9305;DHT22;4690;52.422;13.486;2023-11-21T02:07:11;8.00;99.90
9305;DHT22;4690;52.422;13.486;2023-11-21T02:09:37;7.90;99.90
9305;DHT22;4690;52.422;13.486;2023-11-21T02:12:04;7.80;99.90
9305;DHT22;4690;52.422;13.486;2023-11-21T02:14:30;7.70;99.90
9305;DHT22;4690;52.422;13.486;2023-11-21T02:16:56;7.70;99.90
9305;DHT22;4690;52.422;13.486;2023-11-21T02:19:23;7.60;99.90
9305;DHT22;4690;52.422;13.486;2023-11-21T02:21:51;7.60;99.90
9305;DHT22;4690;52.422;13.486;2023-11-21T02:24:22;7.60;99.90
9305;DHT22;4690;52.422;13.486;2023-11-21T02:26:48;7.50;99.90
9305;DHT22;4690;52.422;13.486;2023-11-21T02:29:18;7.40;99.90
9305;DHT22;4690;52.422;13.486;2023-11-21T02:31:48;7.40;99.90
9305;DHT22;4690;52.422;13.486;2023-11-21T02:34:17;7.30;99.90
9305;DHT22;4690;52.422;13.486;2023-11-21T02:36:44;7.30;99.90
9305;DHT22;4690;52.422;13.486;2023-11-21T02:39:10;7.30;99.90
9305;DHT22;4690;52.422;13.486;2023-11-21T02:41:37;7.30;99.90
9305;DHT22;4690;52.422;13.486;2023-11-21T02:44:07;7.20;99.90
9305;DHT22;4690;52.422;13.486;2023-11-21T02:46:34;7.20;99.90
9305;DHT22;4690;52.422;13.486;2023-11-21T02:49:01;7.20;99.90
9305;DHT22;4690;52.422;13.486;2023-11-21T02:51:36;7.10;99.90
9305;DHT22;4690;52.422;13.486;2023-11-21T02:54:03;7.10;99.90
9305;DHT22;4690;52.422;13.486;2023-11-21T02:56:32;7.10;99.90
9305;DHT22;4690;52.422;13.486;2023-11-21T02:59:00;7.10;99.90
9305;DHT22;4690;52.422;13.486;2023-11-21T03:01:26;7.00;99.90
9305;DHT22;4690;52.422;13.486;2023-11-21T03:03:53;7.00;99.90
9305;DHT22;4690;52.422;13.486;2023-11-21T03:06:20;7.00;99.90
9305;DHT22;4690;52.422;13.486;2023-11-21T03:08:47;7.10;99.90
9305;DHT22;4690;52.422;13.486;2023-11-21T03:11:13;7.10;99.90
9305;DHT22;4690;52.422;13.486;2023-11-21T03:13:40;7.10;99.90
9305;DHT22;4690;52.422;13.486;2023-11-21T03:16:10;7.10;99.90
9305;DHT22;4690;52.422;13.486;2023-11-21T03:18:37;7.10;99.90
9305;DHT22;4690;52.422;13.486;2023-11-21T03:21:04;7.10;99.90
9305;DHT22;4690;52.422;13.486;2023-11-21T03:23:31;7.10;99.90
9305;DHT22;4690;52.422;13.486;2023-11-21T03:25:57;7.00;99.90
9305;DHT22;4690;52.422;13.486;2023-11-21T03:28:23;7.10;99.90
9305;DHT22;4690;52.422;13.486;2023-11-21T03:30:49;7.10;99.90
9305;DHT22;4690;52.422;13.486;2023-11-21T03:33:15;7.00;99.90
9305;DHT22;4690;52.422;13.486;2023-11-21T03:35:41;7.00;99.90
9305;DHT22;4690;52.422;13.486;2023-11-21T03:38:07;7.10;99.90
9305;DHT22;4690;52.422;13.486;2023-11-21T03:40:35;7.00;99.90
9305;DHT22;4690;52.422;13.486;2023-11-21T03:43:01;7.00;99.90
9305;DHT22;4690;52.422;13.486;2023-11-21T03:45:26;7.00;99.90
9305;DHT22;4690;52.422;13.486;2023-11-21T03:47:52;6.90;99.90
9305;DHT22;4690;52.422;13.486;2023-11-21T03:50:18;6.90;99.90
9305;DHT22;4690;52.422;13.486;2023-11-21T03:52:43;6.90;99.90
9305;DHT22;4690;52.422;13.486;2023-11-21T03:55:10;6.90;99.90
9305;DHT22;4690;52.422;13.486;2023-11-21T03:57:38;6.90;99.90
9305;DHT22;4690;52.422;13.486;2023-11-21T04:00:04;7.00;99.90
9305;DHT22;4690;52.422;13.486;2023-11-21T04:02:34;6.90;99.90
9305;DHT22;4690;52.422;13.486;2023-11-21T04:05:00;6.90;99.90
9305;DHT22;4690;52.422;13.486;2023-11-21T04:07:26;6.90;99.90
9305;DHT22;4690;52.422;13.486;2023-11-21T04:09:52;6.90;99.90
9305;DHT22;4690;52.422;13.486;2023-11-21T04:12:19;6.80;99.90
9305;DHT22;4690;52.422;13.486;2023-11-21T04:14:45;6.90;99.90
9305;DHT22;4690;52.422;13.486;2023-11-21T04:17:10;6.90;99.90
9305;DHT22;4690;52.422;13.486;2023-11-21T04:19:36;6.90;99.90
9305;DHT22;4690;52.422;13.486;2023-11-21T04:22:02;6.90;99.90
9305;DHT22;4690;52.422;13.486;2023-11-21T04:24:28;6.80;99.90
9305;DHT22;4690;52.422;13.486;2023-11-21T04:26:53;6.80;99.90
9305;DHT22;4690;52.422;13.486;2023-11-21T04:29:19;6.90;99.90
9305;DHT22;4690;52.422;13.486;2023-11-21T04:31:45;6.80;99.90
9305;DHT22;4690;52.422;13.486;2023-11-21T04:34:11;6.80;99.90
9305;DHT22;4690;52.422;13.486;2023-11-21T04:36:39;6.80;99.90
9305;DHT22;4690;52.422;13.486;2023-11-21T04:39:05;6.80;99.90
9305;DHT22;4690;52.422;13.486;2023-11-21T04:41:32;6.70;99.90
9305;DHT22;4690;52.422;13.486;2023-11-21T04:43:58;6.60;99.90
9305;DHT22;4690;52.422;13.486;2023-11-21T04:46:26;6.60;99.90
9305;DHT22;4690;52.422;13.486;2023-11-21T04:48:52;6.60;99.90
9305;DHT22;4690;52.422;13.486;2023-11-21T04:51:17;6.50;99.90
9305;DHT22;4690;52.422;13.486;2023-11-21T04:53:43;6.40;99.90
9305;DHT22;4690;52.422;13.486;2023-11-21T04:56:09;6.40;99.90
9305;DHT22;4690;52.422;13.486;2023-11-21T04:58:35;6.50;99.90
9305;DHT22;4690;52.422;13.486;2023-11-21T05:01:01;6.40;99.90
9305;DHT22;4690;52.422;13.486;2023-11-21T05:03:27;6.50;99.90
9305;DHT22;4690;52.422;13.486;2023-11-21T05:05:55;6.50;99.90
9305;DHT22;4690;52.422;13.486;2023-11-21T05:08:21;6.50;99.90
9305;DHT22;4690;52.422;13.486;2023-11-21T05:10:47;6.40;99.90
9305;DHT22;4690;52.422;13.486;2023-11-21T05:13:14;6.30;99.90
9305;DHT22;4690;52.422;13.486;2023-11-21T05:15:42;6.40;99.90
9305;DHT22;4690;52.422;13.486;2023-11-21T05:18:09;6.50;99.90
9305;DHT22;4690;52.422;13.486;2023-11-21T05:20:35;6.40;99.90
9305;DHT22;4690;52.422;13.486;2023-11-21T05:23:02;6.50;99.90
9305;DHT22;4690;52.422;13.486;2023-11-21T05:25:28;6.40;99.90
9305;DHT22;4690;52.422;13.486;2023-11-21T05:27:54;6.40;99.90
9305;DHT22;4690;52.422;13.486;2023-11-21T05:30:24;6.50;99.90
9305;DHT22;4690;52.422;13.486;2023-11-21T05:32:50;6.60;99.90
9305;DHT22;4690;52.422;13.486;2023-11-21T05:35:16;6.50;99.90
9305;DHT22;4690;52.422;13.486;2023-11-21T05:37:42;6.40;99.90
9305;DHT22;4690;52.422;13.486;2023-11-21T05:40:08;6.50;99.90
9305;DHT22;4690;52.422;13.486;2023-11-21T05:42:35;6.50;99.90
9305;DHT22;4690;52.422;13.486;2023-11-21T05:45:03;6.40;99.90
9305;DHT22;4690;52.422;13.486;2023-11-21T05:47:40;6.40;99.90
9305;DHT22;4690;52.422;13.486;2023-11-21T05:50:12;6.40;99.90
9305;DHT22;4690;52.422;13.486;2023-11-21T05:52:41;6.40;99.90
9305;DHT22;4690;52.422;13.486;2023-11-21T05:55:09;6.40;99.90
9305;DHT22;4690;52.422;13.486;2023-11-21T05:57:35;6.40;99.90
9305;DHT22;4690;52.422;13.486;2023-11-21T06:00:23;6.40;99.90
9305;DHT22;4690;52.422;13.486;2023-11-21T06:02:52;6.40;99.90
9305;DHT22;4690;52.422;13.486;2023-11-21T06:05:20;6.40;99.90
9305;DHT22;4690;52.422;13.486;2023-11-21T06:07:49;6.40;99.90
9305;DHT22;4690;52.422;13.486;2023-11-21T06:10:15;6.40;99.90
9305;DHT22;4690;52.422;13.486;2023-11-21T06:12:43;6.40;99.90
9305;DHT22;4690;52.422;13.486;2023-11-21T06:15:10;6.40;99.90
9305;DHT22;4690;52.422;13.486;2023-11-21T06:17:39;6.40;99.90
9305;DHT22;4690;52.422;13.486;2023-11-21T06:20:07;6.30;99.90
9305;DHT22;4690;52.422;13.486;2023-11-21T06:22:38;6.30;99.90
9305;DHT22;4690;52.422;13.486;2023-11-21T06:25:06;6.30;99.90
9305;DHT22;4690;52.422;13.486;2023-11-21T06:27:33;6.40;99.90
9305;DHT22;4690;52.422;13.486;2023-11-21T06:30:01;6.30;99.90
9305;DHT22;4690;52.422;13.486;2023-11-21T06:32:28;6.30;99.90
9305;DHT22;4690;52.422;13.486;2023-11-21T06:34:55;6.40;99.90
9305;DHT22;4690;52.422;13.486;2023-11-21T06:37:26;6.40;99.90
9305;DHT22;4690;52.422;13.486;2023-11-21T06:39:52;6.40;99.90
9305;DHT22;4690;52.422;13.486;2023-11-21T06:42:19;6.30;99.90
9305;DHT22;4690;52.422;13.486;2023-11-21T06:44:46;6.20;99.90
9305;DHT22;4690;52.422;13.486;2023-11-21T06:47:12;6.30;99.90
9305;DHT22;4690;52.422;13.486;2023-11-21T06:49:38;6.30;99.90
9305;DHT22;4690;52.422;13.486;2023-11-21T06:52:04;6.30;99.90
9305;DHT22;4690;52.422;13.486;2023-11-21T06:54:33;6.20;99.90
9305;DHT22;4690;52.422;13.486;2023-11-21T06:57:00;6.20;99.90
9305;DHT22;4690;52.422;13.486;2023-11-21T06:59:28;6.20;99.90
9305;DHT22;4690;52.422;13.486;2023-11-21T07:01:54;6.10;99.90
9305;DHT22;4690;52.422;13.486;2023-11-21T07:04:20;6.10;99.90
9305;DHT22;4690;52.422;13.486;2023-11-21T07:06:46;6.10;99.90
9305;DHT22;4690;52.422;13.486;2023-11-21T07:09:12;6.10;99.90
9305;DHT22;4690;52.422;13.486;2023-11-21T07:11:38;6.00;99.90
9305;DHT22;4690;52.422;13.486;2023-11-21T07:14:04;6.00;99.90
9305;DHT22;4690;52.422;13.486;2023-11-21T07:16:37;6.00;99.90
9305;DHT22;4690;52.422;13.486;2023-11-21T07:19:09;6.00;99.90
9305;DHT22;4690;52.422;13.486;2023-11-21T07:21:35;6.00;99.90
9305;DHT22;4690;52.422;13.486;2023-11-21T07:24:03;6.10;99.90
9305;DHT22;4690;52.422;13.486;2023-11-21T07:26:30;6.00;99.90
9305;DHT22;4690;52.422;13.486;2023-11-21T07:28:56;6.00;99.90
9305;DHT22;4690;52.422;13.486;2023-11-21T07:31:22;6.00;99.90
9305;DHT22;4690;52.422;13.486;2023-11-21T07:33:50;6.00;99.90
9305;DHT22;4690;52.422;13.486;2023-11-21T07:36:16;6.00;99.90
9305;DHT22;4690;52.422;13.486;2023-11-21T07:38:49;6.00;99.90
9305;DHT22;4690;52.422;13.486;2023-11-21T07:41:15;5.90;99.90
9305;DHT22;4690;52.422;13.486;2023-11-21T07:43:42;6.00;99.90
9305;DHT22;4690;52.422;13.486;2023-11-21T07:46:07;6.00;99.90
9305;DHT22;4690;52.422;13.486;2023-11-21T07:48:34;5.90;99.90
9305;DHT22;4690;52.422;13.486;2023-11-21T07:51:01;5.90;99.90
9305;DHT22;4690;52.422;13.486;2023-11-21T07:53:32;5.90;99.90
9305;DHT22;4690;52.422;13.486;2023-11-21T07:56:05;5.90;99.90
9305;DHT22;4690;52.422;13.486;2023-11-21T07:58:36;5.90;99.90
9305;DHT22;4690;52.422;13.486;2023-11-21T08:01:02;5.80;99.90
9305;DHT22;4690;52.422;13.486;2023-11-21T08:03:29;5.80;99.90
9305;DHT22;4690;52.422;13.486;2023-11-21T08:05:56;5.70;99.90
9305;DHT22;4690;52.422;13.486;2023-11-21T08:08:23;5.70;99.90
9305;DHT22;4690;52.422;13.486;2023-11-21T08:10:50;5.70;99.90
9305;DHT22;4690;52.422;13.486;2023-11-21T08:13:25;5.60;99.90
9305;DHT22;4690;52.422;13.486;2023-11-21T08:15:55;5.60;99.90
9305;DHT22;4690;52.422;13.486;2023-11-21T08:18:28;5.70;99.90
9305;DHT22;4690;52.422;13.486;2023-11-21T08:20:57;5.60;99.90
9305;DHT22;4690;52.422;13.486;2023-11-21T08:23:23;5.60;99.90
9305;DHT22;4690;52.422;13.486;2023-11-21T08:25:52;5.60;99.90
9305;DHT22;4690;52.422;13.486;2023-11-21T08:28:19;5.60;99.90
9305;DHT22;4690;52.422;13.486;2023-11-21T08:30:48;5.60;99.90
9305;DHT22;4690;52.422;13.486;2023-11-21T08:33:14;5.50;99.90
9305;DHT22;4690;52.422;13.486;2023-11-21T08:35:40;5.50;99.90
9305;DHT22;4690;52.422;13.486;2023-11-21T08:38:06;5.50;99.90
9305;DHT22;4690;52.422;13.486;2023-11-21T08:40:31;5.50;99.90
9305;DHT22;4690;52.422;13.486;2023-11-21T08:42:57;5.50;99.90
9305;DHT22;4690;52.422;13.486;2023-11-21T08:45:30;5.50;99.90
9305;DHT22;4690;52.422;13.486;2023-11-21T08:47:56;5.50;99.90
9305;DHT22;4690;52.422;13.486;2023-11-21T08:50:22;5.50;99.90
9305;DHT22;4690;52.422;13.486;2023-11-21T08:52:48;5.50;99.90
9305;DHT22;4690;52.422;13.486;2023-11-21T08:55:14;5.50;99.90
9305;DHT22;4690;52.422;13.486;2023-11-21T08:57:41;5.60;99.90
9305;DHT22;4690;52.422;13.486;2023-11-21T09:00:10;5.50;99.90
9305;DHT22;4690;52.422;13.486;2023-11-21T09:02:41;5.50;99.90
9305;DHT22;4690;52.422;13.486;2023-11-21T09:05:11;5.50;99.90
9305;DHT22;4690;52.422;13.486;2023-11-21T09:07:40;5.50;99.90
9305;DHT22;4690;52.422;13.486;2023-11-21T09:10:07;5.40;99.90
9305;DHT22;4690;52.422;13.486;2023-11-21T09:12:35;5.50;99.90
9305;DHT22;4690;52.422;13.486;2023-11-21T09:15:05;5.60;99.90
9305;DHT22;4690;52.422;13.486;2023-11-21T09:17:33;5.70;99.90
9305;DHT22;4690;52.422;13.486;2023-11-21T09:19:59;5.60;99.90
9305;DHT22;4690;52.422;13.486;2023-11-21T09:22:25;5.70;99.90
9305;DHT22;4690;52.422;13.486;2023-11-21T09:24:51;5.60;99.90
9305;DHT22;4690;52.422;13.486;2023-11-21T09:27:17;5.50;99.90
9305;DHT22;4690;52.422;13.486;2023-11-21T09:29:44;5.60;99.90
9305;DHT22;4690;52.422;13.486;2023-11-21T09:32:09;5.60;99.90
9305;DHT22;4690;52.422;13.486;2023-11-21T09:34:38;5.50;99.90
9305;DHT22;4690;52.422;13.486;2023-11-21T09:37:07;5.60;99.90
9305;DHT22;4690;52.422;13.486;2023-11-21T09:39:33;5.50;99.90
9305;DHT22;4690;52.422;13.486;2023-11-21T09:42:15;5.40;99.90
9305;DHT22;4690;52.422;13.486;2023-11-21T09:47:29;5.50;99.90
9305;DHT22;4690;52.422;13.486;2023-11-21T09:49:56;5.50;99.90
9305;DHT22;4690;52.422;13.486;2023-11-21T09:52:27;5.60;99.90
9305;DHT22;4690;52.422;13.486;2023-11-21T09:54:54;5.60;99.90
9305;DHT22;4690;52.422;13.486;2023-11-21T09:57:24;5.60;99.90
9305;DHT22;4690;52.422;13.486;2023-11-21T09:59:54;5.60;99.90
9305;DHT22;4690;52.422;13.486;2023-11-21T10:02:29;5.70;99.90
9305;DHT22;4690;52.422;13.486;2023-11-21T10:04:56;5.70;99.90
9305;DHT22;4690;52.422;13.486;2023-11-21T10:07:22;5.70;99.90
9305;DHT22;4690;52.422;13.486;2023-11-21T10:09:51;5.60;99.90
9305;DHT22;4690;52.422;13.486;2023-11-21T10:12:18;5.60;99.90
9305;DHT22;4690;52.422;13.486;2023-11-21T10:14:48;5.50;99.90
9305;DHT22;4690;52.422;13.486;2023-11-21T10:17:15;5.60;99.90
9305;DHT22;4690;52.422;13.486;2023-11-21T10:19:46;5.60;99.90
9305;DHT22;4690;52.422;13.486;2023-11-21T10:22:15;5.60;99.90
9305;DHT22;4690;52.422;13.486;2023-11-21T10:24:41;5.60;99.90
9305;DHT22;4690;52.422;13.486;2023-11-21T10:27:09;5.60;99.90
9305;DHT22;4690;52.422;13.486;2023-11-21T10:29:34;5.60;99.90
9305;DHT22;4690;52.422;13.486;2023-11-21T10:32:02;5.50;99.90
9305;DHT22;4690;52.422;13.486;2023-11-21T10:34:29;5.30;99.90
9305;DHT22;4690;52.422;13.486;2023-11-21T10:36:55;5.30;99.90
9305;DHT22;4690;52.422;13.486;2023-11-21T10:39:24;5.30;99.90
9305;DHT22;4690;52.422;13.486;2023-11-21T10:41:54;5.30;99.90
9305;DHT22;4690;52.422;13.486;2023-11-21T10:44:20;5.30;99.90
9305;DHT22;4690;52.422;13.486;2023-11-21T10:46:55;5.20;99.90
9305;DHT22;4690;52.422;13.486;2023-11-21T10:49:24;5.20;99.90
9305;DHT22;4690;52.422;13.486;2023-11-21T10:51:51;5.30;99.90
9305;DHT22;4690;52.422;13.486;2023-11-21T10:54:23;5.30;99.90
9305;DHT22;4690;52.422;13.486;2023-11-21T10:57:00;5.40;99.90
9305;DHT22;4690;52.422;13.486;2023-11-21T10:59:30;5.40;99.90
9305;DHT22;4690;52.422;13.486;2023-11-21T11:02:01;5.50;99.90
9305;DHT22;4690;52.422;13.486;2023-11-21T11:04:59;5.40;99.90
9305;DHT22;4690;52.422;13.486;2023-11-21T11:07:27;5.50;99.90
9305;DHT22;4690;52.422;13.486;2023-11-21T11:09:58;5.40;99.90
9305;DHT22;4690;52.422;13.486;2023-11-21T11:12:25;5.50;99.90
9305;DHT22;4690;52.422;13.486;2023-11-21T11:14:51;5.60;99.90
9305;DHT22;4690;52.422;13.486;2023-11-21T11:17:19;5.70;99.90
9305;DHT22;4690;52.422;13.486;2023-11-21T11:19:48;5.70;99.90
9305;DHT22;4690;52.422;13.486;2023-11-21T11:22:24;5.70;99.90
9305;DHT22;4690;52.422;13.486;2023-11-21T11:28:15;5.70;99.90
9305;DHT22;4690;52.422;13.486;2023-11-21T11:31:10;5.70;99.90
9305;DHT22;4690;52.422;13.486;2023-11-21T11:33:53;5.70;99.90
9305;DHT22;4690;52.422;13.486;2023-11-21T11:36:31;5.70;99.90
9305;DHT22;4690;52.422;13.486;2023-11-21T11:39:03;5.60;99.90
9305;DHT22;4690;52.422;13.486;2023-11-21T11:41:50;5.60;99.90
9305;DHT22;4690;52.422;13.486;2023-11-21T11:50:07;5.60;99.90
9305;DHT22;4690;52.422;13.486;2023-11-21T11:52:45;5.50;99.90
9305;DHT22;4690;52.422;13.486;2023-11-21T11:55:15;5.60;99.90
9305;DHT22;4690;52.422;13.486;2023-11-21T11:57:53;5.50;99.90
9305;DHT22;4690;52.422;13.486;2023-11-21T12:02:55;5.60;99.90
9305;DHT22;4690;52.422;13.486;2023-11-21T12:05:27;5.60;99.90
9305;DHT22;4690;52.422;13.486;2023-11-21T12:07:57;5.60;99.90
9305;DHT22;4690;52.422;13.486;2023-11-21T12:10:32;5.60;99.90
9305;DHT22;4690;52.422;13.486;2023-11-21T12:13:01;5.70;99.90
9305;DHT22;4690;52.422;13.486;2023-11-21T12:15:28;5.60;99.90
9305;DHT22;4690;52.422;13.486;2023-11-21T12:17:56;5.70;99.90
9305;DHT22;4690;52.422;13.486;2023-11-21T12:20:23;5.70;99.90
9305;DHT22;4690;52.422;13.486;2023-11-21T12:22:51;5.60;99.90
9305;DHT22;4690;52.422;13.486;2023-11-21T12:25:20;5.60;99.90
9305;DHT22;4690;52.422;13.486;2023-11-21T12:27:51;5.70;99.90
9305;DHT22;4690;52.422;13.486;2023-11-21T12:30:19;5.60;99.90
9305;DHT22;4690;52.422;13.486;2023-11-21T12:32:52;5.60;99.90
9305;DHT22;4690;52.422;13.486;2023-11-21T12:35:23;5.60;99.90
9305;DHT22;4690;52.422;13.486;2023-11-21T12:37:51;5.60;99.90
9305;DHT22;4690;52.422;13.486;2023-11-21T12:40:19;5.60;99.90
9305;DHT22;4690;52.422;13.486;2023-11-21T12:42:47;5.60;99.90
9305;DHT22;4690;52.422;13.486;2023-11-21T12:47:50;5.60;99.90
9305;DHT22;4690;52.422;13.486;2023-11-21T12:50:30;5.60;99.90
9305;DHT22;4690;52.422;13.486;2023-11-21T12:53:04;5.60;99.90
9305;DHT22;4690;52.422;13.486;2023-11-21T12:55:34;5.50;99.90
9305;DHT22;4690;52.422;13.486;2023-11-21T12:58:08;5.50;99.90
9305;DHT22;4690;52.422;13.486;2023-11-21T13:00:37;5.50;99.90
9305;DHT22;4690;52.422;13.486;2023-11-21T13:03:10;5.40;99.90
9305;DHT22;4690;52.422;13.486;2023-11-21T13:05:39;5.50;99.90
9305;DHT22;4690;52.422;13.486;2023-11-21T13:08:11;5.40;99.90
9305;DHT22;4690;52.422;13.486;2023-11-21T13:10:40;5.40;99.90
9305;DHT22;4690;52.422;13.486;2023-11-21T13:13:10;5.40;99.90
9305;DHT22;4690;52.422;13.486;2023-11-21T13:16:02;5.40;99.90
9305;DHT22;4690;52.422;13.486;2023-11-21T13:18:31;5.40;99.90
9305;DHT22;4690;52.422;13.486;2023-11-21T13:20:59;5.40;99.90
9305;DHT22;4690;52.422;13.486;2023-11-21T13:23:34;5.40;99.90
9305;DHT22;4690;52.422;13.486;2023-11-21T13:26:01;5.50;99.90
9305;DHT22;4690;52.422;13.486;2023-11-21T13:28:29;5.40;99.90
9305;DHT22;4690;52.422;13.486;2023-11-21T13:31:02;5.50;99.90
9305;DHT22;4690;52.422;13.486;2023-11-21T13:33:35;5.40;99.90
9305;DHT22;4690;52.422;13.486;2023-11-21T13:36:04;5.40;99.90
9305;DHT22;4690;52.422;13.486;2023-11-21T13:38:33;5.60;99.90
9305;DHT22;4690;52.422;13.486;2023-11-21T13:41:01;5.60;99.90
9305;DHT22;4690;52.422;13.486;2023-11-21T13:43:27;5.50;99.90
9305;DHT22;4690;52.422;13.486;2023-11-21T13:45:54;5.50;99.90
9305;DHT22;4690;52.422;13.486;2023-11-21T13:48:32;5.40;99.90
9305;DHT22;4690;52.422;13.486;2023-11-21T13:51:13;5.40;99.90
9305;DHT22;4690;52.422;13.486;2023-11-21T13:53:46;5.40;99.90
9305;DHT22;4690;52.422;13.486;2023-11-21T13:56:15;5.30;99.90
9305;DHT22;4690;52.422;13.486;2023-11-21T13:58:45;5.30;99.90
9305;DHT22;4690;52.422;13.486;2023-11-21T14:01:24;5.30;99.90
9305;DHT22;4690;52.422;13.486;2023-11-21T14:04:13;5.20;99.90
9305;DHT22;4690;52.422;13.486;2023-11-21T14:06:42;5.10;99.90
9305;DHT22;4690;52.422;13.486;2023-11-21T14:09:16;5.00;99.90
9305;DHT22;4690;52.422;13.486;2023-11-21T14:12:01;5.00;99.90
9305;DHT22;4690;52.422;13.486;2023-11-21T14:14:31;5.00;99.90
9305;DHT22;4690;52.422;13.486;2023-11-21T14:16:57;4.90;99.90
9305;DHT22;4690;52.422;13.486;2023-11-21T14:19:24;4.80;99.90
9305;DHT22;4690;52.422;13.486;2023-11-21T14:21:56;4.80;99.90
9305;DHT22;4690;52.422;13.486;2023-11-21T14:24:22;4.70;99.90
9305;DHT22;4690;52.422;13.486;2023-11-21T14:26:49;4.70;99.90
9305;DHT22;4690;52.422;13.486;2023-11-21T14:29:17;4.70;99.90
9305;DHT22;4690;52.422;13.486;2023-11-21T14:31:49;4.70;99.90
9305;DHT22;4690;52.422;13.486;2023-11-21T14:34:17;4.80;99.90
9305;DHT22;4690;52.422;13.486;2023-11-21T14:36:43;4.70;99.90
9305;DHT22;4690;52.422;13.486;2023-11-21T14:39:10;4.70;99.90
9305;DHT22;4690;52.422;13.486;2023-11-21T14:41:48;4.60;99.90
9305;DHT22;4690;52.422;13.486;2023-11-21T14:44:14;4.70;99.90
9305;DHT22;4690;52.422;13.486;2023-11-21T14:46:41;4.60;99.90
9305;DHT22;4690;52.422;13.486;2023-11-21T14:49:12;4.60;99.90
9305;DHT22;4690;52.422;13.486;2023-11-21T14:51:53;4.60;99.90
9305;DHT22;4690;52.422;13.486;2023-11-21T14:54:27;4.50;99.90
9305;DHT22;4690;52.422;13.486;2023-11-21T14:57:07;4.50;99.90
9305;DHT22;4690;52.422;13.486;2023-11-21T14:59:37;4.40;99.90
9305;DHT22;4690;52.422;13.486;2023-11-21T15:02:08;4.30;99.90
9305;DHT22;4690;52.422;13.486;2023-11-21T15:04:43;4.20;99.90
9305;DHT22;4690;52.422;13.486;2023-11-21T15:07:10;4.30;99.90
9305;DHT22;4690;52.422;13.486;2023-11-21T15:09:37;4.20;99.90
9305;DHT22;4690;52.422;13.486;2023-11-21T15:12:12;4.20;99.90
9305;DHT22;4690;52.422;13.486;2023-11-21T15:14:49;4.20;99.90
9305;DHT22;4690;52.422;13.486;2023-11-21T15:17:20;4.20;99.90
9305;DHT22;4690;52.422;13.486;2023-11-21T15:19:52;4.20;99.90
9305;DHT22;4690;52.422;13.486;2023-11-21T15:22:19;4.20;99.90
9305;DHT22;4690;52.422;13.486;2023-11-21T15:24:45;4.20;99.90
9305;DHT22;4690;52.422;13.486;2023-11-21T15:27:15;4.10;99.90
9305;DHT22;4690;52.422;13.486;2023-11-21T15:29:42;4.10;99.90
9305;DHT22;4690;52.422;13.486;2023-11-21T15:32:09;4.10;99.90
9305;DHT22;4690;52.422;13.486;2023-11-21T15:34:36;4.00;99.90
9305;DHT22;4690;52.422;13.486;2023-11-21T15:37:03;4.10;99.90
9305;DHT22;4690;52.422;13.486;2023-11-21T15:39:33;4.00;99.90
9305;DHT22;4690;52.422;13.486;2023-11-21T15:41:59;4.00;99.90
9305;DHT22;4690;52.422;13.486;2023-11-21T15:44:25;4.10;99.90
9305;DHT22;4690;52.422;13.486;2023-11-21T15:46:53;4.00;99.90
9305;DHT22;4690;52.422;13.486;2023-11-21T15:49:19;3.90;99.90
9305;DHT22;4690;52.422;13.486;2023-11-21T15:51:48;3.90;99.90
9305;DHT22;4690;52.422;13.486;2023-11-21T15:54:25;3.90;99.90
9305;DHT22;4690;52.422;13.486;2023-11-21T15:56:53;3.80;99.90
9305;DHT22;4690;52.422;13.486;2023-11-21T15:59:23;3.80;99.90
9305;DHT22;4690;52.422;13.486;2023-11-21T16:01:54;3.80;99.90
9305;DHT22;4690;52.422;13.486;2023-11-21T16:04:20;3.90;99.90
9305;DHT22;4690;52.422;13.486;2023-11-21T16:06:47;3.80;99.90
9305;DHT22;4690;52.422;13.486;2023-11-21T16:09:14;3.80;99.90
9305;DHT22;4690;52.422;13.486;2023-11-21T16:11:56;3.90;99.90
9305;DHT22;4690;52.422;13.486;2023-11-21T16:14:34;3.80;99.90
9305;DHT22;4690;52.422;13.486;2023-11-21T16:17:07;3.80;99.90
9305;DHT22;4690;52.422;13.486;2023-11-21T16:19:34;3.70;99.90
9305;DHT22;4690;52.422;13.486;2023-11-21T16:22:00;3.80;99.90
9305;DHT22;4690;52.422;13.486;2023-11-21T16:24:27;3.70;99.90
9305;DHT22;4690;52.422;13.486;2023-11-21T16:26:53;3.70;99.90
9305;DHT22;4690;52.422;13.486;2023-11-21T16:29:21;3.60;99.90
9305;DHT22;4690;52.422;13.486;2023-11-21T16:31:47;3.60;99.90
9305;DHT22;4690;52.422;13.486;2023-11-21T16:34:18;3.60;99.90
9305;DHT22;4690;52.422;13.486;2023-11-21T16:36:45;3.60;99.90
9305;DHT22;4690;52.422;13.486;2023-11-21T16:39:21;3.60;99.90